Time;durP1;ratioP1;P1;durP2;ratioP2;P2;SDS_P1;SDS_P2;PMS_P1;PMS_P2;Temp;Humidity;BMP_temperature;BMP_pressure;BME280_temperature;BME280_humidity;BME280_pressure;Samples;Min_cycle;Max_cycle;Signal;HPM_P1;HPM_P2
2021/12/05 00:22:16;;;;;;;28.90;13.93;;;4.00;99.90;;;;;;5072591;28;20041;-82
2021/12/05 00:24:49;;;;;;;26.37;14.23;;;4.00;99.90;;;;;;5072067;28;20416;-82
2021/12/05 00:27:20;;;;;;;27.77;13.40;;;4.00;99.90;;;;;;5071461;28;20047;-82
2021/12/05 00:30:00;;;;;;;24.08;14.55;;;4.10;99.90;;;;;;5072159;28;20039;-82
2021/12/05 00:32:52;;;;;;;22.70;12.65;;;4.00;99.90;;;;;;5058132;28;20136;-82
2021/12/05 00:35:58;;;;;;;23.17;11.70;;;4.00;99.90;;;;;;5054508;28;20043;-82
2021/12/05 00:52:09;;;;;;;20.30;10.38;;;4.00;99.90;;;;;;5072315;28;20040;-82
2021/12/05 00:57:36;;;;;;;19.92;10.18;;;4.10;99.90;;;;;;5071309;28;20068;-82
2021/12/05 01:03:39;;;;;;;16.33;8.80;;;4.00;99.90;;;;;;5071187;28;20404;-83
2021/12/05 01:06:15;;;;;;;16.27;9.50;;;4.00;99.90;;;;;;5064864;28;20164;-82
2021/12/05 01:11:17;;;;;;;15.45;9.18;;;3.90;99.90;;;;;;5070780;28;20037;-82
2021/12/05 01:14:21;;;;;;;13.75;9.02;;;3.90;99.90;;;;;;5070286;28;20037;-82
2021/12/05 01:16:33;;;;;;;15.93;8.68;;;3.90;99.90;;;;;;5070168;28;20044;-82
2021/12/05 01:18:59;;;;;;;14.50;7.88;;;3.80;99.90;;;;;;5071154;28;20029;-82
2021/12/05 01:21:26;;;;;;;17.77;10.30;;;3.90;99.90;;;;;;5071014;28;20439;-82
2021/12/05 01:26:41;;;;;;;16.02;8.52;;;3.80;99.90;;;;;;5085799;28;20048;-82
2021/12/05 01:39:36;;;;;;;17.50;9.48;;;3.80;99.90;;;;;;5064999;28;20485;-82
2021/12/05 01:42:36;;;;;;;12.77;7.70;;;3.80;99.90;;;;;;5053839;28;20094;-82
2021/12/05 01:50:27;;;;;;;14.88;9.13;;;3.80;99.90;;;;;;5073267;28;20040;-82
2021/12/05 01:55:48;;;;;;;13.48;7.35;;;3.70;99.90;;;;;;5070367;28;20291;-82
2021/12/05 02:07:53;;;;;;;14.88;8.15;;;3.80;99.90;;;;;;5050898;28;20056;-82
2021/12/05 02:15:11;;;;;;;16.10;8.13;;;3.90;99.90;;;;;;5073172;28;20185;-82
2021/12/05 02:29:34;;;;;;;15.48;8.23;;;4.00;99.90;;;;;;5072963;28;20090;-81
2021/12/05 02:39:33;;;;;;;13.77;8.05;;;4.00;99.90;;;;;;5072894;28;20094;-82
2021/12/05 02:42:09;;;;;;;13.57;7.85;;;4.00;99.90;;;;;;5089502;28;20089;-82
2021/12/05 02:44:36;;;;;;;14.52;8.07;;;4.00;99.90;;;;;;5054855;28;20040;-83
2021/12/05 02:47:14;;;;;;;18.08;8.55;;;4.00;99.90;;;;;;5072424;28;20052;-82
2021/12/05 02:49:43;;;;;;;14.85;8.32;;;4.00;99.90;;;;;;5072165;28;20496;-82
2021/12/05 02:52:12;;;;;;;16.90;8.20;;;4.00;99.90;;;;;;5072578;28;20044;-83
2021/12/05 02:54:49;;;;;;;15.40;9.90;;;4.00;99.90;;;;;;5054612;28;20040;-82
2021/12/05 02:57:15;;;;;;;20.10;9.45;;;4.00;99.90;;;;;;5072149;28;20054;-82
2021/12/05 02:59:52;;;;;;;16.65;9.85;;;4.00;99.90;;;;;;5071539;28;20504;-83
2021/12/05 03:02:25;;;;;;;19.77;9.68;;;4.00;99.90;;;;;;5056221;28;20055;-83
2021/12/05 03:04:52;;;;;;;17.98;9.98;;;4.00;99.90;;;;;;5071719;28;20045;-82
2021/12/05 03:07:25;;;;;;;19.40;10.48;;;4.00;99.90;;;;;;5070089;28;20103;-82
2021/12/05 03:09:51;;;;;;;21.35;12.45;;;4.00;99.90;;;;;;5071942;28;20475;-82
2021/12/05 03:12:19;;;;;;;20.80;11.05;;;4.10;99.90;;;;;;5071258;28;20074;-82
2021/12/05 03:14:47;;;;;;;22.52;12.23;;;4.00;99.90;;;;;;5071396;28;20102;-81
2021/12/05 03:17:13;;;;;;;20.55;12.63;;;4.10;99.90;;;;;;5070630;28;20028;-82
2021/12/05 03:19:39;;;;;;;25.52;13.98;;;4.10;99.90;;;;;;5071152;28;20091;-83
2021/12/05 03:22:05;;;;;;;22.90;11.98;;;4.00;99.90;;;;;;5070865;28;20489;-82
2021/12/05 03:24:31;;;;;;;21.38;12.80;;;4.00;99.90;;;;;;5071257;28;20458;-83
2021/12/05 03:26:57;;;;;;;20.08;12.70;;;4.00;99.90;;;;;;5053644;28;20127;-83
2021/12/05 03:29:23;;;;;;;23.52;13.85;;;4.00;99.90;;;;;;5088549;28;20079;-83
2021/12/05 03:31:51;;;;;;;24.33;14.73;;;4.00;99.90;;;;;;5071543;28;20038;-82
2021/12/05 03:34:17;;;;;;;28.05;15.23;;;4.00;99.90;;;;;;5090536;28;20108;-82
2021/12/05 03:36:47;;;;;;;22.08;14.35;;;4.00;99.90;;;;;;5087692;28;20393;-82
2021/12/05 03:39:13;;;;;;;29.02;14.88;;;4.00;99.90;;;;;;5072110;28;20123;-82
2021/12/05 03:41:41;;;;;;;25.00;15.38;;;4.00;99.90;;;;;;5089995;28;20044;-82
2021/12/05 03:44:10;;;;;;;30.65;16.00;;;4.10;99.90;;;;;;5090929;28;20041;-82
2021/12/05 03:46:37;;;;;;;26.90;17.77;;;4.00;99.90;;;;;;5070151;28;20051;-82
2021/12/05 03:49:07;;;;;;;30.98;17.30;;;4.10;99.90;;;;;;5089615;28;20048;-82
2021/12/05 03:51:37;;;;;;;26.67;15.80;;;4.10;99.90;;;;;;5071913;28;20481;-82
2021/12/05 03:54:05;;;;;;;31.40;15.38;;;4.10;99.90;;;;;;5070323;28;20063;-82
2021/12/05 03:56:32;;;;;;;35.35;18.00;;;4.10;99.90;;;;;;5072026;28;20123;-83
2021/12/05 03:58:58;;;;;;;30.85;16.27;;;4.00;99.90;;;;;;5054762;28;20051;-82
2021/12/05 04:01:25;;;;;;;30.73;17.70;;;4.10;99.90;;;;;;5072188;28;20032;-82
2021/12/05 04:03:52;;;;;;;27.55;16.13;;;4.00;99.90;;;;;;5089022;28;20411;-82
2021/12/05 04:06:20;;;;;;;30.40;15.65;;;4.00;99.90;;;;;;5055666;28;20350;-82
2021/12/05 04:08:46;;;;;;;24.33;15.65;;;4.00;99.90;;;;;;5087574;28;20036;-82
2021/12/05 04:11:27;;;;;;;22.10;14.93;;;4.00;99.90;;;;;;5088445;28;20131;-82
2021/12/05 04:13:52;;;;;;;26.17;14.95;;;4.00;99.90;;;;;;5070406;28;20381;-82
2021/12/05 04:16:18;;;;;;;30.55;16.92;;;4.00;99.90;;;;;;5070711;28;20043;-83
2021/12/05 04:18:46;;;;;;;28.20;15.52;;;4.00;99.90;;;;;;5087613;28;20036;-83
2021/12/05 04:21:12;;;;;;;26.52;14.35;;;4.00;99.90;;;;;;5054204;28;20043;-82
2021/12/05 04:23:38;;;;;;;29.30;15.57;;;4.00;99.90;;;;;;5070634;28;20032;-82
2021/12/05 04:26:04;;;;;;;21.25;13.75;;;3.90;99.90;;;;;;5071090;28;20037;-82
2021/12/05 04:28:31;;;;;;;27.05;15.05;;;4.00;99.90;;;;;;5054654;28;20044;-82
2021/12/05 04:30:57;;;;;;;29.38;14.95;;;3.90;99.90;;;;;;5071091;28;20507;-83
2021/12/05 04:33:22;;;;;;;24.15;14.27;;;3.90;99.90;;;;;;5053966;28;20032;-83
2021/12/05 04:35:48;;;;;;;23.38;13.88;;;3.90;99.90;;;;;;5069847;28;20040;-82
2021/12/05 04:38:14;;;;;;;23.48;13.73;;;3.90;99.90;;;;;;5053653;28;20040;-82
2021/12/05 04:40:41;;;;;;;25.02;13.05;;;3.90;99.90;;;;;;5053955;28;20059;-83
2021/12/05 04:43:07;;;;;;;22.13;13.27;;;3.80;99.90;;;;;;5087736;28;20040;-82
2021/12/05 04:45:35;;;;;;;23.33;14.48;;;3.80;99.90;;;;;;5087342;28;20500;-82
2021/12/05 04:48:03;;;;;;;24.65;12.68;;;3.90;99.90;;;;;;5071291;28;20086;-82
2021/12/05 04:50:31;;;;;;;20.60;11.68;;;3.80;99.90;;;;;;5054028;28;20077;-83
2021/12/05 04:52:56;;;;;;;23.80;12.55;;;3.80;99.90;;;;;;5087696;28;20086;-82
2021/12/05 04:55:23;;;;;;;24.42;12.75;;;3.80;99.90;;;;;;5070412;28;20427;-82
2021/12/05 04:57:48;;;;;;;18.50;10.35;;;3.80;99.90;;;;;;5087344;28;20082;-82
2021/12/05 05:00:39;;;;;;;19.35;11.20;;;3.80;99.90;;;;;;5070298;28;20036;-83
2021/12/05 05:03:05;;;;;;;27.30;12.05;;;3.80;99.90;;;;;;5070529;28;20062;-82
2021/12/05 05:05:32;;;;;;;22.20;11.80;;;3.70;99.90;;;;;;5070556;28;20400;-83
2021/12/05 05:07:59;;;;;;;17.45;9.65;;;3.70;99.90;;;;;;5067792;28;20044;-82
2021/12/05 05:10:28;;;;;;;26.15;10.48;;;3.70;99.90;;;;;;5070863;28;20036;-82
2021/12/05 05:12:54;;;;;;;18.08;8.90;;;3.70;99.90;;;;;;5070565;28;20377;-82
2021/12/05 05:15:23;;;;;;;16.42;10.02;;;3.70;99.90;;;;;;5088327;28;20051;-82
2021/12/05 05:17:51;;;;;;;21.35;9.40;;;3.70;99.90;;;;;;5086475;28;20040;-83
2021/12/05 05:20:24;;;;;;;16.33;9.38;;;3.70;99.90;;;;;;5090851;28;20034;-83
2021/12/05 05:45:14;;;;;;;19.80;7.85;;;3.50;99.90;;;;;;5074718;28;20036;-82
2021/12/05 05:47:38;;;;;;;17.67;8.02;;;3.50;99.90;;;;;;5072766;28;20469;-83
2021/12/05 05:50:04;;;;;;;14.95;6.63;;;3.50;99.90;;;;;;5090361;28;20045;-82
2021/12/05 05:52:32;;;;;;;14.00;6.72;;;3.40;99.90;;;;;;5057330;28;20044;-82
2021/12/05 05:54:59;;;;;;;12.15;6.28;;;3.40;99.90;;;;;;5073764;28;20052;-82
2021/12/05 05:57:31;;;;;;;14.27;6.88;;;3.40;99.90;;;;;;5091061;28;20047;-82
2021/12/05 06:05:13;;;;;;;15.38;7.50;;;3.30;99.90;;;;;;5073189;28;20137;-82
2021/12/05 06:07:45;;;;;;;13.63;7.50;;;3.30;99.90;;;;;;5056931;28;20040;-82
2021/12/05 06:10:21;;;;;;;18.27;7.55;;;3.30;99.90;;;;;;5071738;28;20041;-82
2021/12/05 06:12:47;;;;;;;;;;;3.30;99.90;;;;;;5071789;28;20037;-82
2021/12/05 06:15:15;;;;;;;13.75;6.90;;;3.30;99.90;;;;;;5074367;28;19917;-81
2021/12/05 06:17:41;;;;;;;12.48;6.15;;;3.30;99.90;;;;;;5073357;28;20423;-82
2021/12/05 06:20:13;;;;;;;17.88;8.95;;;3.30;99.90;;;;;;5074056;28;20129;-81
2021/12/05 06:22:38;;;;;;;18.77;6.53;;;3.30;99.90;;;;;;5071503;28;20575;-83
2021/12/05 06:25:08;;;;;;;13.80;6.67;;;3.40;99.90;;;;;;5057438;28;20060;-82
2021/12/05 06:27:34;;;;;;;16.85;6.57;;;3.30;99.90;;;;;;5072474;28;20036;-81
2021/12/05 06:30:09;;;;;;;14.80;7.13;;;3.30;99.90;;;;;;5073369;28;20039;-82
2021/12/05 06:36:46;;;;;;;13.93;6.28;;;3.30;99.90;;;;;;5073001;28;20456;-82
2021/12/05 06:38:11;;;;;;;17.42;7.72;;;3.30;99.90;;;;;;5073615;28;20408;-82
2021/12/05 06:46:06;;;;;;;16.63;8.20;;;3.30;99.90;;;;;;5070044;28;20045;-82
2021/12/05 06:48:32;;;;;;;14.07;6.80;;;3.30;99.90;;;;;;5073372;28;20116;-82
2021/12/05 06:50:58;;;;;;;14.60;7.25;;;3.30;99.90;;;;;;5072420;28;20079;-82
2021/12/05 06:53:24;;;;;;;12.70;7.72;;;3.30;99.90;;;;;;5057232;28;20028;-82
2021/12/05 06:55:49;;;;;;;19.15;7.22;;;3.30;99.90;;;;;;5071879;28;20068;-82
2021/12/05 06:58:15;;;;;;;17.40;8.47;;;3.30;99.90;;;;;;5056819;28;20116;-82
2021/12/05 07:00:40;;;;;;;17.92;7.13;;;3.30;99.90;;;;;;5072107;28;20044;-82
2021/12/05 07:03:08;;;;;;;23.47;8.47;;;3.30;99.90;;;;;;5072491;28;20025;-83
2021/12/05 07:05:45;;;;;;;20.02;7.80;;;3.30;99.90;;;;;;5072970;28;20473;-83
2021/12/05 07:08:14;;;;;;;17.73;7.50;;;3.30;99.90;;;;;;5055663;28;20523;-82
2021/12/05 07:11:10;;;;;;;22.23;9.10;;;3.30;99.90;;;;;;5072784;28;20056;-82
2021/12/05 07:15:59;;;;;;;14.33;7.13;;;3.30;99.90;;;;;;5071872;28;20111;-82
2021/12/05 07:23:59;;;;;;;21.27;8.60;;;3.40;99.90;;;;;;5071527;28;20052;-82
2021/12/05 07:40:26;;;;;;;25.00;10.70;;;3.40;99.90;;;;;;5073961;28;20049;-82
2021/12/05 07:43:14;;;;;;;17.70;8.50;;;3.50;99.90;;;;;;5056225;28;20040;-82
2021/12/05 07:45:46;;;;;;;22.42;9.27;;;3.50;99.90;;;;;;5073105;28;20428;-82
2021/12/05 07:48:19;;;;;;;18.65;8.95;;;3.50;99.90;;;;;;5091447;28;20047;-82
2021/12/05 07:51:05;;;;;;;24.25;11.38;;;3.50;99.90;;;;;;5090380;28;20035;-83
2021/12/05 07:56:16;;;;;;;16.33;9.80;;;3.50;99.90;;;;;;5069323;28;20421;-82
2021/12/05 07:58:57;;;;;;;21.20;9.10;;;3.60;99.90;;;;;;5075346;28;20063;-82
2021/12/05 08:14:24;;;;;;;24.83;11.50;;;3.60;99.90;;;;;;5067041;28;20047;-82
2021/12/05 08:15:14;;;;;;;19.77;9.65;;;3.70;99.90;;;;;;5071065;28;20052;-82
2021/12/05 08:17:41;;;;;;;19.95;9.80;;;3.80;99.90;;;;;;5072454;28;20044;-82
2021/12/05 08:20:10;;;;;;;18.85;10.10;;;3.80;99.90;;;;;;5071795;28;20466;-82
2021/12/05 08:22:36;;;;;;;24.30;10.80;;;3.80;99.90;;;;;;5088987;28;20032;-82
2021/12/05 08:25:10;;;;;;;22.70;10.65;;;3.80;99.90;;;;;;5072741;28;20040;-82
2021/12/05 08:27:38;;;;;;;24.63;10.48;;;3.80;99.90;;;;;;5088949;28;20044;-82
2021/12/05 08:30:09;;;;;;;18.90;9.82;;;3.80;99.90;;;;;;5088902;28;20048;-83
2021/12/05 08:32:59;;;;;;;26.27;11.43;;;3.80;99.90;;;;;;5088476;28;20032;-82
2021/12/05 09:24:46;;;;;;;20.67;10.30;;;4.40;99.90;;;;;;5088242;28;20045;-81
2021/12/05 09:38:49;;;;;;;;;;;4.60;99.90;;;;;;5084414;28;20098;-81
2021/12/05 10:09:05;;;;;;;15.18;6.95;;;4.80;99.90;;;;;;5078461;28;20045;-82
2021/12/05 10:11:47;;;;;;;16.30;8.20;;;4.90;99.90;;;;;;5077951;28;20049;-81
2021/12/05 10:14:29;;;;;;;14.65;7.40;;;4.80;99.90;;;;;;5077221;28;20045;-82
2021/12/05 10:37:13;;;;;;;26.52;13.48;;;4.90;99.90;;;;;;5077776;28;20052;-82
2021/12/05 10:39:40;;;;;;;26.73;11.77;;;4.90;99.90;;;;;;5062967;28;20025;-82
2021/12/05 10:42:38;;;;;;;20.52;10.25;;;4.90;99.90;;;;;;5077869;28;20028;-82
2021/12/05 10:45:07;;;;;;;19.25;9.80;;;4.90;99.90;;;;;;5060802;28;20719;-81
2021/12/05 10:47:42;;;;;;;18.90;9.88;;;4.90;99.90;;;;;;5076027;28;20064;-82
2021/12/05 10:50:28;;;;;;;15.85;9.50;;;4.90;99.90;;;;;;5078273;28;20167;-82
2021/12/05 10:53:16;;;;;;;12.90;6.88;;;4.90;99.90;;;;;;5078591;28;20066;-82
2021/12/05 10:55:42;;;;;;;28.40;17.95;;;4.90;99.90;;;;;;5091854;28;20043;-82
2021/12/05 10:58:07;;;;;;;13.38;8.63;;;4.90;99.90;;;;;;5063693;28;20028;-82
2021/12/05 11:00:33;;;;;;;13.13;7.30;;;4.90;99.90;;;;;;5076501;28;20033;-81
2021/12/05 11:03:17;;;;;;;23.15;14.00;;;4.90;99.90;;;;;;5095155;28;20040;-82
2021/12/05 11:05:43;;;;;;;14.57;7.93;;;4.90;99.90;;;;;;5094773;28;20100;-82
2021/12/05 11:08:33;;;;;;;16.10;8.02;;;4.90;99.90;;;;;;5095616;28;20039;-81
2021/12/05 11:11:10;;;;;;;14.02;6.70;;;5.00;99.90;;;;;;5079712;28;20516;-82
2021/12/05 11:13:38;;;;;;;15.00;7.57;;;4.90;99.90;;;;;;5094008;28;20059;-82
2021/12/05 11:16:38;;;;;;;13.32;6.40;;;5.00;99.90;;;;;;5062647;28;20032;-82
2021/12/05 11:19:25;;;;;;;16.23;10.85;;;5.00;99.90;;;;;;5076000;28;20461;-82
2021/12/05 11:22:06;;;;;;;15.38;7.38;;;5.10;99.90;;;;;;5076900;28;20075;-82
2021/12/05 11:24:36;;;;;;;16.00;8.40;;;5.10;99.90;;;;;;5078826;28;20089;-81
2021/12/05 11:27:37;;;;;;;16.92;8.32;;;5.20;99.90;;;;;;5077308;28;20149;-82
2021/12/05 11:30:22;;;;;;;13.82;8.48;;;5.20;99.90;;;;;;5016935;28;20084;-83
2021/12/05 11:32:54;;;;;;;10.30;7.57;;;5.10;99.90;;;;;;5069354;28;20544;-82
2021/12/05 11:35:38;;;;;;;12.68;7.10;;;5.10;99.90;;;;;;5061800;28;20040;-82
2021/12/05 11:38:20;;;;;;;12.25;7.45;;;5.10;99.90;;;;;;5061833;28;20070;-82
2021/12/05 11:41:02;;;;;;;15.05;9.60;;;5.10;99.90;;;;;;5061203;28;20040;-82
2021/12/05 11:43:36;;;;;;;24.63;14.32;;;5.00;99.90;;;;;;5062413;28;20043;-82
2021/12/05 11:46:13;;;;;;;19.58;9.25;;;5.00;99.90;;;;;;5060655;28;20059;-82
2021/12/05 11:48:47;;;;;;;21.02;12.52;;;5.00;99.90;;;;;;5062773;28;20079;-82
2021/12/05 11:51:27;;;;;;;13.50;8.15;;;5.00;99.90;;;;;;5061945;28;20044;-82
2021/12/05 11:54:24;;;;;;;20.77;10.57;;;5.00;99.90;;;;;;5062694;28;20048;-82
2021/12/05 11:57:03;;;;;;;18.80;10.25;;;4.90;99.90;;;;;;5077519;28;20048;-82
2021/12/05 11:59:37;;;;;;;17.73;10.38;;;4.90;99.90;;;;;;5078775;28;20394;-82
2021/12/05 12:02:09;;;;;;;13.77;9.02;;;4.90;99.90;;;;;;5062551;28;20051;-82
2021/12/05 12:04:46;;;;;;;13.35;7.38;;;5.00;99.90;;;;;;5095679;28;20048;-82
2021/12/05 12:07:21;;;;;;;13.55;7.03;;;5.00;99.90;;;;;;5095574;28;20051;-82
2021/12/05 12:09:50;;;;;;;11.18;7.72;;;5.00;99.90;;;;;;5062675;28;20052;-82
2021/12/05 12:12:16;;;;;;;16.20;8.25;;;5.00;99.90;;;;;;5059807;28;20084;-81
2021/12/05 12:14:42;;;;;;;15.30;7.60;;;5.00;99.90;;;;;;5055390;28;20051;-81
2021/12/05 12:17:16;;;;;;;12.13;6.97;;;5.00;99.90;;;;;;5071716;28;20204;-81
2021/12/05 12:19:43;;;;;;;12.00;7.10;;;5.10;99.90;;;;;;5088183;28;20047;-81
2021/12/05 12:22:09;;;;;;;17.98;7.88;;;5.00;99.90;;;;;;5089438;28;20369;-81
2021/12/05 12:24:37;;;;;;;12.82;8.32;;;5.10;99.90;;;;;;5087632;28;20176;-81
2021/12/05 12:27:03;;;;;;;21.50;11.45;;;5.10;99.90;;;;;;5084652;28;20089;-81
2021/12/05 12:29:29;;;;;;;26.27;14.15;;;5.20;99.90;;;;;;5071120;28;20127;-80
2021/12/05 12:32:01;;;;;;;27.88;15.55;;;5.20;99.90;;;;;;5088970;28;20056;-81
2021/12/05 12:34:27;;;;;;;21.40;10.35;;;5.30;99.90;;;;;;5089042;28;20447;-81
2021/12/05 12:36:59;;;;;;;18.73;10.88;;;5.30;99.90;;;;;;5071007;28;20085;-81
2021/12/05 12:39:35;;;;;;;22.38;11.88;;;5.30;99.90;;;;;;5088580;28;20059;-80
2021/12/05 12:42:23;;;;;;;24.60;12.55;;;5.30;99.90;;;;;;5075088;28;20389;-81
2021/12/05 12:45:18;;;;;;;20.42;10.90;;;5.30;99.90;;;;;;5072301;28;20043;-81
2021/12/05 12:47:45;;;;;;;20.08;8.00;;;5.30;99.90;;;;;;5052860;28;20048;-78
2021/12/05 12:50:33;;;;;;;16.45;8.02;;;5.30;99.90;;;;;;5069027;28;20512;-81
2021/12/05 12:53:20;;;;;;;18.65;9.90;;;5.30;99.90;;;;;;5087668;28;20049;-80
2021/12/05 12:56:10;;;;;;;14.02;8.35;;;5.40;99.90;;;;;;5069403;28;20075;-80
2021/12/05 12:58:55;;;;;;;12.95;7.05;;;5.40;99.90;;;;;;5070335;28;20037;-80
2021/12/05 13:12:40;;;;;;;13.27;6.63;;;5.50;99.90;;;;;;5069469;28;20121;-80
2021/12/05 13:15:16;;;;;;;12.57;6.78;;;5.60;99.90;;;;;;5069646;28;20497;-80
2021/12/05 13:17:45;;;;;;;13.63;7.55;;;5.60;99.90;;;;;;5069366;28;20049;-80
2021/12/05 13:20:15;;;;;;;12.75;7.93;;;5.60;99.90;;;;;;5069647;28;20087;-80
2021/12/05 13:23:01;;;;;;;12.10;8.95;;;5.70;99.90;;;;;;5064622;28;20036;-80
2021/12/05 13:25:28;;;;;;;12.00;6.15;;;5.60;99.90;;;;;;5068910;28;20497;-80
2021/12/05 13:27:54;;;;;;;17.17;7.18;;;5.70;99.90;;;;;;5069417;28;20038;-80
2021/12/05 13:30:33;;;;;;;12.85;7.28;;;5.70;99.90;;;;;;5054571;28;20086;-81
2021/12/05 13:33:16;;;;;;;15.73;9.32;;;5.70;99.90;;;;;;5066952;28;20049;-80
2021/12/05 13:35:43;;;;;;;14.80;7.30;;;5.70;99.90;;;;;;5069113;28;20036;-80
2021/12/05 13:38:29;;;;;;;15.32;7.00;;;5.60;99.90;;;;;;5069954;28;20052;-82
2021/12/05 13:41:08;;;;;;;15.18;8.18;;;5.60;99.90;;;;;;5059220;28;20059;-81
2021/12/05 13:43:34;;;;;;;13.85;6.93;;;5.60;99.90;;;;;;5056794;28;20443;-80
2021/12/05 13:46:00;;;;;;;16.45;8.20;;;5.50;99.90;;;;;;5090264;28;20235;-81
2021/12/05 13:48:29;;;;;;;17.13;8.15;;;5.50;99.90;;;;;;5091195;28;20484;-80
2021/12/05 13:51:01;;;;;;;13.10;7.75;;;5.50;99.90;;;;;;5090325;28;20181;-80
2021/12/05 13:53:48;;;;;;;13.02;7.68;;;5.50;99.90;;;;;;5072254;28;20037;-80
2021/12/05 13:56:20;;;;;;;10.65;6.90;;;5.50;99.90;;;;;;5073218;28;20516;-80
2021/12/05 13:58:48;;;;;;;11.82;6.93;;;5.50;99.90;;;;;;5057100;28;20032;-80
2021/12/05 14:01:43;;;;;;;11.65;7.15;;;5.40;99.90;;;;;;5073570;28;20047;-81
2021/12/05 14:04:19;;;;;;;12.88;7.40;;;5.40;99.90;;;;;;5073532;28;20033;-80
2021/12/05 14:07:04;;;;;;;;;;;5.30;99.90;;;;;;5090503;28;20156;-80
2021/12/05 14:09:32;;;;;;;10.55;7.15;;;5.30;99.90;;;;;;5073265;28;20269;-79
2021/12/05 14:12:00;;;;;;;11.70;7.55;;;5.30;99.90;;;;;;5073917;28;20123;-80
2021/12/05 14:14:42;;;;;;;13.18;7.22;;;5.30;99.90;;;;;;5056423;28;20041;-80
2021/12/05 14:17:15;;;;;;;19.08;8.68;;;5.30;99.90;;;;;;5072793;28;20116;-80
2021/12/05 14:19:44;;;;;;;19.35;8.27;;;5.30;99.90;;;;;;5073504;28;20400;-80
2021/12/05 14:22:13;;;;;;;11.95;8.55;;;5.30;99.90;;;;;;5073503;28;20041;-80
2021/12/05 14:24:48;;;;;;;15.95;8.43;;;5.30;99.90;;;;;;5073943;28;20063;-80
2021/12/05 14:27:18;;;;;;;10.57;7.65;;;5.20;99.90;;;;;;5057271;28;20075;-81
2021/12/05 14:29:46;;;;;;;12.35;7.28;;;5.20;99.90;;;;;;5090947;28;20420;-81
2021/12/05 14:32:36;;;;;;;16.92;9.30;;;5.30;99.90;;;;;;5073312;28;20174;-81
2021/12/05 14:35:06;;;;;;;13.13;7.72;;;5.20;99.90;;;;;;5066702;28;20079;-80
2021/12/05 14:37:34;;;;;;;13.32;7.70;;;5.20;99.90;;;;;;5090748;28;20052;-81
2021/12/05 14:40:04;;;;;;;14.93;9.38;;;5.20;99.90;;;;;;5081575;28;20044;-80
2021/12/05 14:42:32;;;;;;;15.55;8.95;;;5.10;99.90;;;;;;5073220;28;20051;-81
2021/12/05 14:45:21;;;;;;;17.25;8.98;;;5.20;99.90;;;;;;5090804;28;20041;-80
2021/12/05 14:47:48;;;;;;;11.65;7.82;;;5.20;99.90;;;;;;5090090;28;20036;-81
2021/12/05 14:50:20;;;;;;;17.70;9.27;;;5.10;99.90;;;;;;5090769;28;20063;-82
2021/12/05 14:52:49;;;;;;;15.60;9.45;;;5.10;99.90;;;;;;5073588;28;20497;-81
2021/12/05 14:55:18;;;;;;;22.52;9.98;;;5.20;99.90;;;;;;5056615;28;20068;-81
2021/12/05 14:57:59;;;;;;;15.48;8.52;;;5.10;99.90;;;;;;5073887;28;20040;-81
2021/12/05 15:00:32;;;;;;;14.98;8.98;;;5.10;99.90;;;;;;5073938;28;20044;-81
2021/12/05 15:03:08;;;;;;;18.45;8.43;;;5.10;99.90;;;;;;5074481;28;20404;-80
2021/12/05 15:05:37;;;;;;;12.70;8.50;;;5.00;99.90;;;;;;5073665;28;20112;-80
2021/12/05 15:08:14;;;;;;;10.95;8.00;;;5.10;99.90;;;;;;5085048;28;20166;-81
2021/12/05 15:10:42;;;;;;;13.02;8.07;;;5.00;99.90;;;;;;5088980;28;20048;-81
2021/12/05 15:13:09;;;;;;;14.38;8.60;;;5.00;99.90;;;;;;5090555;28;20151;-80
2021/12/05 15:15:35;;;;;;;16.75;9.27;;;5.00;99.90;;;;;;5087304;28;20413;-81
2021/12/05 15:18:01;;;;;;;14.60;8.30;;;5.00;99.90;;;;;;5053139;28;20045;-81
2021/12/05 15:20:30;;;;;;;16.17;8.77;;;5.00;99.90;;;;;;5053512;28;20453;-83
2021/12/05 15:23:06;;;;;;;309.48;228.18;;;4.90;99.90;;;;;;5059390;28;20040;-81
2021/12/05 15:25:33;;;;;;;20.08;13.20;;;4.90;99.90;;;;;;5059443;28;20040;-82
2021/12/05 15:27:59;;;;;;;22.85;10.32;;;4.90;99.90;;;;;;5052659;28;20040;-80
2021/12/05 15:30:35;;;;;;;18.90;9.98;;;4.90;99.90;;;;;;5062403;28;20041;-80
2021/12/05 15:33:14;;;;;;;15.88;10.20;;;4.90;99.90;;;;;;5090300;28;20048;-81
2021/12/05 15:35:43;;;;;;;15.00;8.13;;;4.90;99.90;;;;;;5071105;28;20032;-81
2021/12/05 15:38:12;;;;;;;17.38;9.60;;;4.90;99.90;;;;;;5069398;28;20036;-81
2021/12/05 15:40:42;;;;;;;18.35;9.13;;;4.90;99.90;;;;;;5070150;28;20041;-81
2021/12/05 15:43:15;;;;;;;17.10;8.60;;;4.90;99.90;;;;;;5086275;28;20044;-81
2021/12/05 15:45:43;;;;;;;15.38;9.57;;;4.90;99.90;;;;;;5040261;28;20051;-81
2021/12/05 15:48:09;;;;;;;15.27;9.55;;;4.90;99.90;;;;;;5053530;28;20040;-81
2021/12/05 15:50:38;;;;;;;14.77;10.68;;;4.80;99.90;;;;;;5068418;28;20054;-81
2021/12/05 15:53:12;;;;;;;15.50;9.23;;;4.80;99.90;;;;;;5082162;28;20505;-81
2021/12/05 15:55:39;;;;;;;16.52;9.48;;;4.80;99.90;;;;;;5055375;28;20497;-81
2021/12/05 15:58:13;;;;;;;21.58;10.82;;;4.80;99.90;;;;;;5073057;28;20036;-81
2021/12/05 16:00:49;;;;;;;16.27;9.45;;;4.80;99.90;;;;;;5071967;28;20563;-83
2021/12/05 16:03:23;;;;;;;18.35;10.88;;;4.80;99.90;;;;;;5068407;28;20477;-81
2021/12/05 16:05:59;;;;;;;21.98;11.23;;;4.70;99.90;;;;;;5051429;28;20103;-81
2021/12/05 16:08:29;;;;;;;18.48;10.55;;;4.70;99.90;;;;;;5052192;28;20064;-81
2021/12/05 16:10:58;;;;;;;18.25;12.25;;;4.70;99.90;;;;;;5060801;28;20074;-82
2021/12/05 16:13:46;;;;;;;15.95;10.57;;;4.70;99.90;;;;;;5072124;28;20041;-81
2021/12/05 16:16:24;;;;;;;17.55;11.43;;;4.70;99.90;;;;;;5071732;28;20554;-81
2021/12/05 16:18:53;;;;;;;17.85;11.63;;;4.70;99.90;;;;;;5055399;28;20462;-81
2021/12/05 16:21:26;;;;;;;22.33;12.23;;;4.70;99.90;;;;;;5071460;28;20032;-80
2021/12/05 16:23:51;;;;;;;18.23;12.30;;;4.70;99.90;;;;;;5071273;28;20052;-81
2021/12/05 16:26:22;;;;;;;21.30;11.77;;;4.70;99.90;;;;;;5088886;28;20032;-81
2021/12/05 16:29:00;;;;;;;20.02;11.68;;;4.70;99.90;;;;;;5088660;28;20071;-81
2021/12/05 16:31:38;;;;;;;22.30;12.90;;;4.70;99.90;;;;;;5084221;28;20045;-81
2021/12/05 16:34:07;;;;;;;29.83;18.92;;;4.70;99.90;;;;;;5068743;28;20041;-81
2021/12/05 16:36:37;;;;;;;26.33;13.23;;;4.70;99.90;;;;;;5069707;28;20040;-81
2021/12/05 16:39:32;;;;;;;24.25;14.10;;;4.70;99.90;;;;;;5072392;28;20047;-83
2021/12/05 16:42:20;;;;;;;22.13;13.77;;;4.70;99.90;;;;;;5056704;28;20051;-81
2021/12/05 16:44:53;;;;;;;24.50;13.75;;;4.70;99.90;;;;;;5054652;28;20055;-81
2021/12/05 16:47:23;;;;;;;23.10;12.65;;;4.60;99.90;;;;;;5070727;28;20443;-81
2021/12/05 16:49:51;;;;;;;23.95;13.73;;;4.60;99.90;;;;;;5075975;28;20040;-82
2021/12/05 16:52:31;;;;;;;29.98;14.90;;;4.60;99.90;;;;;;5066037;28;20047;-82
2021/12/05 16:55:22;;;;;;;23.75;14.90;;;4.60;99.90;;;;;;5064591;28;20416;-81
2021/12/05 17:00:49;;;;;;;26.55;14.98;;;4.60;99.90;;;;;;5033538;28;20128;-81
2021/12/05 17:03:23;;;;;;;27.92;16.58;;;4.60;99.90;;;;;;5057172;28;20115;-81
2021/12/05 17:05:51;;;;;;;27.52;16.13;;;4.60;99.90;;;;;;5054116;28;20094;-81
2021/12/05 17:08:28;;;;;;;27.60;17.00;;;4.60;99.90;;;;;;5070540;28;20068;-81
2021/12/05 17:11:06;;;;;;;28.13;15.77;;;4.60;99.90;;;;;;5048528;28;20048;-80
2021/12/05 17:13:42;;;;;;;30.77;16.52;;;4.60;99.90;;;;;;5069369;28;20138;-81
2021/12/05 17:16:09;;;;;;;29.15;15.40;;;4.60;99.90;;;;;;5068614;28;20378;-79
2021/12/05 17:18:36;;;;;;;29.27;16.08;;;4.70;99.90;;;;;;5069154;28;20036;-80
2021/12/05 17:21:12;;;;;;;30.30;17.83;;;4.60;99.90;;;;;;5073366;28;20041;-80
2021/12/05 17:23:40;;;;;;;30.88;17.05;;;4.60;99.90;;;;;;5073437;28;20036;-80
2021/12/05 17:26:22;;;;;;;29.50;17.02;;;4.60;99.90;;;;;;5073538;28;20036;-80
2021/12/05 17:29:04;;;;;;;27.08;17.55;;;4.60;99.90;;;;;;5073362;28;20041;-79
2021/12/05 17:31:38;;;;;;;33.03;17.77;;;4.60;99.90;;;;;;5072002;28;20484;-80
2021/12/05 17:34:07;;;;;;;31.98;18.20;;;4.60;99.90;;;;;;5073309;28;20032;-80
2021/12/05 17:36:39;;;;;;;33.22;19.55;;;4.50;99.90;;;;;;5072986;28;20049;-80
2021/12/05 17:39:15;;;;;;;29.48;17.73;;;4.50;99.90;;;;;;5073302;28;20051;-79
2021/12/05 17:41:44;;;;;;;29.08;16.77;;;4.60;99.90;;;;;;5056729;28;20111;-80
2021/12/05 17:44:10;;;;;;;35.15;18.42;;;4.60;99.90;;;;;;5053276;28;20037;-82
2021/12/05 17:46:37;;;;;;;26.42;17.58;;;4.50;99.90;;;;;;5085885;28;20044;-81
2021/12/05 17:49:05;;;;;;;31.77;17.73;;;4.60;99.90;;;;;;5074078;28;20201;-81
2021/12/05 17:51:36;;;;;;;28.17;16.25;;;4.60;99.90;;;;;;5073493;28;20062;-80
2021/12/05 17:54:17;;;;;;;31.70;18.92;;;4.70;99.90;;;;;;5054741;28;20117;-80
2021/12/05 17:56:49;;;;;;;25.33;16.13;;;4.60;99.90;;;;;;5070147;28;20067;-80
2021/12/05 17:59:29;;;;;;;31.98;17.65;;;4.60;99.90;;;;;;5070435;28;20041;-80
2021/12/05 18:04:46;;;;;;;31.92;18.38;;;4.50;99.90;;;;;;5072142;28;20056;-81
2021/12/05 18:07:13;;;;;;;30.67;16.15;;;4.50;99.90;;;;;;5072420;28;20507;-80